Aeroporto :







RITROVATECI SU...

 
LOGIN :

Iscrizione | Disclaimer

   EN    FR    IT 

 









Sommario :    VFR   VFR Marginale   IFR   IFR Intensivo   IFR Molto Intensivo
Visibilità : 
Base nubi : 
>= 8 km
>= 3000ft
5 / 8 km
1000 / 3000 ft
1500m / 5 km
500 / 1000 ft
800 / 1500m
200 / 500 ft
< 800m
< 200 ft
Simboli :   Temporali  Nebbia  Neve Forte  Precipitazioni Forti  Vento > 20 kt






- Altitudine del aeroporto : 180 ft
- Codice IATA : YZV


CYZV - Sept-Iles

ULTIMO METAR :
  • 142200Z 19010KT 15SM FEW035 SCT100 OVC160 M03/M14 A3026 RMK SC1AC4AC4 SC TR SLP251

METARs OBSOLETI :
  • 142100Z 20007G17KT 30SM FEW030 BKN100 OVC180 M03/M12 A3027 RMK CU1AC5AC3 CU TR SLP256
  • 142000Z 21012G17KT 30SM FEW035 BKN100 BKN180 OVC220 M03/M12 A3028 RMK CU1AS5AC1CI2 CU TR SLP259

TAF TAF CYZV
Valido dal 14 a 18 ore il 15 a 18 ore UTC


141738Z 1418/1518 22010KT P6SM SCT030 OVC100
TEMPO 1418/1424 5SM -SN BKN020 OVC100
FM150000 24012G22KT 6SM -SN OVC030
TEMPO 1500/1503 3SM -SHSN OVC020
FM150300 22012G22KT 21/2SM -SHSN OVC020
FM151000 16012KT 1SM -SN OVC012
FM151500 18012KT 1/2SM SN VV008 RMK NXT FCST BY 150000Z



MetMap, La meteo Aeronautica in un colpo d'occhio ! - Copyright ORBIFLY Dicembre 2007 - Disclaimer

ORBIFLY MET'MAP TEAM :

Programmazione e sviluppo : Alexandra Zaïnal
Concezione e sviluppo : Baudouin d'Aumeries
Co-Programmazione e sviluppo : Marc-Olivier Méhu
Supporto tecnico e logistico : Manuel Goepfert
Aiuto per la traduzione : Arnaldo La Scala

Contatto : metmap@orbifly.com




FONTI E CREDITI :

   NOAA